Time;durP1;ratioP1;P1;durP2;ratioP2;P2;SDS_P1;SDS_P2;PMS_P1;PMS_P2;Temp;Humidity;BMP_temperature;BMP_pressure;BME280_temperature;BME280_humidity;BME280_pressure;Samples;Min_cycle;Max_cycle;Signal;HPM_P1;HPM_P2
2022/11/20 00:00:57;;;;;;;59.97;36.35;;;;;;;10.70;92.73;98843.56;5017371;28;20030;-71
2022/11/20 00:03:23;;;;;;;56.35;36.97;;;;;;;10.51;92.86;98836.59;5035034;28;20029;-71
2022/11/20 00:05:48;;;;;;;64.90;38.50;;;;;;;10.62;92.81;98836.91;5035070;28;20052;-71
2022/11/20 00:08:14;;;;;;;70.63;42.28;;;;;;;10.48;93.86;98839.28;5034665;28;20468;-71
2022/11/20 00:10:40;;;;;;;80.63;41.75;;;;;;;10.39;94.54;98847.75;5033733;28;20025;-71
2022/11/20 00:13:07;;;;;;;64.43;40.03;;;;;;;10.58;94.12;98840.78;5034792;28;20036;-71
2022/11/20 00:15:33;;;;;;;69.13;41.92;;;;;;;10.75;94.14;98854.53;5017107;28;20026;-71
2022/11/20 00:17:58;;;;;;;69.22;39.17;;;;;;;10.52;93.33;98829.84;5016905;28;20389;-71
2022/11/20 00:20:24;;;;;;;66.55;40.78;;;;;;;10.62;93.32;98842.53;5017037;28;20021;-71
2022/11/20 00:22:50;;;;;;;70.80;40.95;;;;;;;10.45;93.51;98826.78;5034356;28;20120;-71
2022/11/20 00:25:16;;;;;;;60.15;37.55;;;;;;;10.68;93.29;98837.50;5033324;28;20029;-71
2022/11/20 00:27:41;;;;;;;52.85;33.83;;;;;;;10.48;93.69;98844.88;5034636;28;20477;-71
2022/11/20 00:30:07;;;;;;;59.30;33.75;;;;;;;10.61;93.62;98840.88;5034235;28;20022;-71
2022/11/20 00:32:36;;;;;;;51.17;33.08;;;;;;;10.35;94.27;98849.59;5016831;28;20519;-71
2022/11/20 00:35:04;;;;;;;52.80;31.98;;;;;;;10.17;94.56;98858.22;5034377;28;20026;-72
2022/11/20 00:37:29;;;;;;;51.40;33.78;;;;;;;10.05;96.41;98842.22;5034300;28;20025;-71
2022/11/20 00:39:55;;;;;;;54.13;33.80;;;;;;;9.82;97.33;98841.84;5031469;28;20025;-71
2022/11/20 00:42:20;;;;;;;45.33;31.10;;;;;;;10.01;97.46;98832.91;5029704;28;20052;-69
2022/11/20 00:44:45;;;;;;;47.75;31.30;;;;;;;10.16;97.24;98825.84;5030824;28;20028;-71
2022/11/20 00:47:11;;;;;;;55.03;30.80;;;;;;;10.32;96.21;98827.94;5012397;28;20042;-71
2022/11/20 00:49:36;;;;;;;47.38;31.00;;;;;;;10.37;95.58;98822.94;5012694;28;20021;-70
2022/11/20 00:52:02;;;;;;;43.17;28.70;;;;;;;10.37;95.11;98819.31;5014338;28;20156;-71
2022/11/20 00:54:28;;;;;;;48.95;28.95;;;;;;;10.34;94.87;98826.44;5013939;28;20040;-71
2022/11/20 00:56:53;;;;;;;44.38;29.30;;;;;;;10.38;95.05;98826.56;5031637;28;20068;-70
2022/11/20 00:59:19;;;;;;;39.42;27.50;;;;;;;10.56;94.33;98829.13;5032281;28;20473;-71
2022/11/20 01:01:44;;;;;;;46.42;28.27;;;;;;;10.63;93.68;98821.78;5030793;28;20029;-71
2022/11/20 01:04:10;;;;;;;49.97;29.83;;;;;;;10.68;93.64;98817.94;5031094;28;20037;-72
2022/11/20 01:06:37;;;;;;;46.13;27.67;;;;;;;10.50;92.68;98821.00;5032066;28;20026;-71
2022/11/20 01:09:13;;;;;;;46.78;28.55;;;;;;;10.08;94.84;98838.75;5031302;28;20021;-71
2022/11/20 01:11:44;;;;;;;45.05;28.60;;;;;;;10.17;96.05;98835.03;5014602;28;20036;-71
2022/11/20 01:14:16;;;;;;;45.20;28.55;;;;;;;10.22;95.05;98824.44;5006363;28;20033;-71
2022/11/20 01:16:44;;;;;;;42.60;27.90;;;;;;;10.19;95.66;98813.13;5031805;28;20042;-71
2022/11/20 01:19:16;;;;;;;41.58;26.77;;;;;;;10.17;95.67;98809.88;5030176;28;20033;-71
2022/11/20 01:21:43;;;;;;;43.50;27.60;;;;;;;10.17;94.82;98812.66;5013996;28;20029;-71
2022/11/20 01:24:12;;;;;;;45.33;26.52;;;;;;;10.23;95.12;98809.28;5029184;28;20103;-71
2022/11/20 01:26:40;;;;;;;44.40;27.03;;;;;;;10.09;95.31;98803.22;5011029;28;20029;-71
2022/11/20 01:29:09;;;;;;;40.80;26.67;;;;;;;10.10;95.31;98807.66;5031193;28;20098;-71
2022/11/20 01:31:36;;;;;;;43.22;27.48;;;;;;;10.12;95.47;98794.16;5030260;28;20029;-71
2022/11/20 01:34:05;;;;;;;44.65;26.90;;;;;;;9.93;96.70;98801.13;5028778;28;20036;-71
2022/11/20 01:36:32;;;;;;;39.25;25.88;;;;;;;10.16;95.94;98780.28;5030734;28;20044;-71
2022/11/20 01:39:00;;;;;;;42.63;25.95;;;;;;;10.38;95.06;98776.22;5029121;28;20413;-71
2022/11/20 01:44:15;;;;;;;43.88;25.67;;;;;;;10.26;95.01;98774.25;5031794;28;20111;-72
2022/11/20 01:47:05;;;;;;;40.00;25.25;;;;;;;10.37;94.77;98764.22;4990546;28;1136184;-71
2022/11/20 01:49:38;;;;;;;39.38;25.25;;;;;;;10.04;95.36;98761.56;5031393;28;20088;-71
2022/11/20 01:52:19;;;;;;;39.38;25.20;;;;;;;10.19;95.63;98763.66;5014636;28;20502;-71
2022/11/20 01:55:07;;;;;;;40.40;26.80;;;;;;;10.15;95.18;98748.75;5027452;28;20425;-71
2022/11/20 01:57:35;;;;;;;41.70;25.10;;;;;;;10.18;95.75;98752.81;5013173;28;20540;-71
2022/11/20 02:00:08;;;;;;;48.25;28.60;;;;;;;10.05;96.09;98741.63;5013165;28;20036;-71
2022/11/20 02:02:35;;;;;;;44.17;28.13;;;;;;;10.22;95.21;98732.19;5011707;28;20121;-71
2022/11/20 02:05:09;;;;;;;43.50;28.20;;;;;;;10.07;95.70;98724.53;4995220;28;20128;-71
2022/11/20 02:07:35;;;;;;;47.00;29.10;;;;;;;9.85;97.24;98732.22;5016400;28;20025;-71
2022/11/20 02:10:01;;;;;;;48.83;29.02;;;;;;;9.77;98.48;98724.75;5032232;28;20499;-71
2022/11/20 02:15:11;;;;;;;59.65;32.00;;;;;;;9.35;100.00;98748.88;5032722;28;20040;-72
2022/11/20 02:17:36;;;;;;;41.67;30.48;;;;;;;9.32;100.00;98734.78;5013040;28;20408;-72
2022/11/20 02:20:04;;;;;;;46.75;29.35;;;;;;;9.29;100.00;98752.22;5032044;28;20044;-71
2022/11/20 02:22:38;;;;;;;55.30;31.38;;;;;;;9.28;100.00;98743.03;5031010;28;20022;-72
2022/11/20 02:25:07;;;;;;;46.13;28.73;;;;;;;9.27;100.00;98733.03;5032285;28;20109;-71
2022/11/20 02:27:32;;;;;;;49.40;28.52;;;;;;;9.52;100.00;98719.97;5032213;28;21179;-72
2022/11/20 02:30:01;;;;;;;45.67;28.48;;;;;;;9.56;100.00;98720.09;5031472;28;20079;-71
2022/11/20 02:32:30;;;;;;;48.97;29.20;;;;;;;9.88;100.00;98706.38;5013550;28;20028;-72
2022/11/20 02:34:56;;;;;;;53.35;28.73;;;;;;;9.83;99.74;98746.53;5030315;28;20029;-72
2022/11/20 02:37:23;;;;;;;46.38;27.70;;;;;;;9.73;100.00;98713.47;5027415;28;20041;-72
2022/11/20 02:39:51;;;;;;;49.63;29.27;;;;;;;9.62;100.00;98738.22;5011601;28;20037;-71
2022/11/20 02:42:16;;;;;;;52.05;28.15;;;;;;;9.47;100.00;98711.00;5013133;28;20029;-71
2022/11/20 02:44:42;;;;;;;47.47;25.70;;;;;;;9.75;100.00;98708.34;5031453;28;20451;-71
2022/11/20 02:47:08;;;;;;;42.30;27.88;;;;;;;9.81;100.00;98725.69;5031795;28;20056;-71
2022/11/20 02:49:33;;;;;;;48.33;26.88;;;;;;;9.95;100.00;98709.41;5031934;28;20508;-71
2022/11/20 02:52:00;;;;;;;40.17;25.02;;;;;;;9.94;100.00;98724.53;5011472;28;20319;-71
2022/11/20 02:54:26;;;;;;;44.45;27.27;;;;;;;9.56;100.00;98720.09;5029825;28;20500;-71
2022/11/20 02:56:51;;;;;;;44.28;26.10;;;;;;;9.64;100.00;98721.94;5009430;28;20108;-71
2022/11/20 02:59:17;;;;;;;40.97;26.52;;;;;;;9.67;100.00;98731.59;5013433;28;20044;-71
2022/11/20 03:01:42;;;;;;;41.95;27.23;;;;;;;9.66;100.00;98719.63;5031107;28;20029;-71
2022/11/20 03:04:08;;;;;;;37.30;25.20;;;;;;;9.89;100.00;98723.94;5030615;28;20508;-71
2022/11/20 03:06:34;;;;;;;38.75;24.67;;;;;;;9.87;100.00;98724.28;5012205;28;20425;-71
2022/11/20 03:08:59;;;;;;;36.30;22.35;;;;;;;9.97;100.00;98723.03;5025822;28;20484;-71
2022/11/20 03:11:25;;;;;;;39.22;22.80;;;;;;;10.10;100.00;98729.41;5029026;28;20076;-71
2022/11/20 03:13:50;;;;;;;38.13;22.40;;;;;;;10.18;100.00;98724.88;5012424;28;20032;-71
2022/11/20 03:16:19;;;;;;;34.60;20.88;;;;;;;9.92;100.00;98698.94;5031415;28;20022;-71
2022/11/20 03:18:45;;;;;;;29.73;19.75;;;;;;;9.88;100.00;98702.78;5029224;28;20501;-71
2022/11/20 03:21:12;;;;;;;32.25;20.00;;;;;;;9.78;100.00;98699.28;5013454;28;20033;-71
2022/11/20 03:23:38;;;;;;;28.42;19.05;;;;;;;10.04;100.00;98702.88;5013392;28;20647;-71
2022/11/20 03:26:11;;;;;;;33.80;20.38;;;;;;;10.07;100.00;98707.78;5012210;28;20120;-71
2022/11/20 03:28:37;;;;;;;36.95;18.48;;;;;;;10.07;100.00;98707.78;5031066;28;20105;-71
2022/11/20 03:31:12;;;;;;;28.80;18.15;;;;;;;10.13;100.00;98711.13;5030882;28;20302;-72
2022/11/20 03:33:39;;;;;;;32.50;18.15;;;;;;;10.16;100.00;98716.84;5011801;28;20029;-71
2022/11/20 03:36:06;;;;;;;31.48;18.80;;;;;;;10.20;100.00;98726.16;5031093;28;20053;-71
2022/11/20 03:38:32;;;;;;;25.52;16.42;;;;;;;10.19;100.00;98721.72;5029840;28;20022;-71
2022/11/20 03:41:00;;;;;;;36.65;17.08;;;;;;;10.29;100.00;98720.44;5031131;28;20087;-71
2022/11/20 03:43:26;;;;;;;23.42;15.50;;;;;;;10.22;100.00;98715.44;5013118;28;20475;-71
2022/11/20 03:45:51;;;;;;;29.58;17.17;;;;;;;10.22;100.00;98717.44;5009459;28;20050;-71
2022/11/20 03:48:17;;;;;;;29.38;17.80;;;;;;;10.37;100.00;98718.66;5031113;28;20021;-71
2022/11/20 03:50:42;;;;;;;31.05;18.60;;;;;;;10.32;100.00;98710.53;5030317;28;20684;-71
2022/11/20 03:53:07;;;;;;;42.50;21.98;;;;;;;10.38;100.00;98725.91;5003536;28;20034;-71
2022/11/20 03:55:33;;;;;;;36.83;20.08;;;;;;;10.49;100.00;98712.28;5024321;28;20455;-71
2022/11/20 03:57:58;;;;;;;32.42;19.83;;;;;;;10.46;100.00;98722.19;5029227;28;20037;-71
2022/11/20 04:00:24;;;;;;;36.47;21.15;;;;;;;10.61;100.00;98731.81;5030535;28;20029;-71
2022/11/20 04:02:49;;;;;;;36.75;19.55;;;;;;;10.57;100.00;98738.47;5031052;28;20025;-71
2022/11/20 04:05:15;;;;;;;33.13;19.20;;;;;;;10.73;100.00;98747.75;5030611;28;20033;-72
2022/11/20 04:07:40;;;;;;;30.30;18.15;;;;;;;10.61;100.00;98745.81;5024958;28;20038;-72
2022/11/20 04:10:06;;;;;;;26.63;17.38;;;;;;;10.62;100.00;98752.22;5030969;28;20040;-71
2022/11/20 04:12:33;;;;;;;30.45;17.52;;;;;;;10.73;100.00;98744.94;5030692;28;20027;-71
2022/11/20 04:14:58;;;;;;;27.17;16.60;;;;;;;10.68;100.00;98750.81;5025224;28;20036;-71
2022/11/20 04:17:24;;;;;;;22.63;14.52;;;;;;;10.86;100.00;98733.72;5030599;28;20488;-71
2022/11/20 04:19:49;;;;;;;30.45;15.27;;;;;;;11.06;100.00;98735.50;5030533;28;20492;-71
2022/11/20 04:22:14;;;;;;;23.60;14.38;;;;;;;11.17;100.00;98713.44;5029425;28;20488;-71
2022/11/20 04:24:40;;;;;;;17.33;11.43;;;;;;;11.25;100.00;98711.66;5030569;28;20488;-71
2022/11/20 04:27:05;;;;;;;19.42;11.95;;;;;;;11.28;100.00;98727.72;5024574;28;20080;-72
2022/11/20 04:29:31;;;;;;;26.38;15.57;;;;;;;11.29;100.00;98729.34;5029256;28;20028;-71
2022/11/20 04:31:56;;;;;;;31.83;16.73;;;;;;;11.30;99.19;98722.56;5002781;28;20037;-72
2022/11/20 04:34:22;;;;;;;20.92;13.45;;;;;;;11.46;99.66;98744.19;5011789;28;20033;-71
2022/11/20 04:36:47;;;;;;;19.65;12.63;;;;;;;11.44;98.94;98749.31;5009637;28;20029;-72
2022/11/20 04:39:15;;;;;;;21.05;13.40;;;;;;;11.57;98.34;98747.28;5030596;28;20034;-72
2022/11/20 04:41:41;;;;;;;23.35;11.55;;;;;;;11.42;98.61;98730.09;5031726;28;20083;-72
2022/11/20 04:44:06;;;;;;;16.48;10.73;;;;;;;11.22;100.00;98734.72;5033375;28;20025;-71
2022/11/20 04:46:38;;;;;;;16.23;10.90;;;;;;;11.21;100.00;98727.50;5032141;28;20558;-71
2022/11/20 04:49:04;;;;;;;18.33;10.18;;;;;;;11.11;100.00;98728.84;5033345;28;20025;-72
2022/11/20 04:51:30;;;;;;;22.05;11.50;;;;;;;11.10;100.00;98735.63;5032868;28;20033;-72
2022/11/20 04:53:55;;;;;;;23.40;10.50;;;;;;;11.23;100.00;98736.38;5016332;28;20467;-72
2022/11/20 04:56:21;;;;;;;19.52;10.82;;;;;;;11.15;100.00;98743.75;5015863;28;20025;-71
2022/11/20 04:58:46;;;;;;;26.52;10.68;;;;;;;11.20;100.00;98729.50;5033137;28;20033;-71
2022/11/20 05:01:17;;;;;;;23.83;11.02;;;;;;;11.19;100.00;98725.09;5015285;28;20029;-71
2022/11/20 05:03:43;;;;;;;23.85;9.40;;;;;;;11.27;100.00;98733.66;5031470;28;20029;-70
2022/11/20 05:06:11;;;;;;;32.17;12.40;;;;;;;11.21;100.00;98728.34;5031857;28;20128;-72
2022/11/20 05:08:36;;;;;;;30.42;10.57;;;;;;;11.19;100.00;98725.09;5033760;28;20476;-72
2022/11/20 05:11:06;;;;;;;20.73;11.55;;;;;;;11.18;100.00;98722.63;5015627;28;20036;-71
2022/11/20 05:13:32;;;;;;;15.80;9.90;;;;;;;11.15;100.00;98720.56;5015886;28;20033;-72
2022/11/20 05:16:03;;;;;;;26.67;12.10;;;;;;;11.13;100.00;98737.69;5010811;28;20029;-72
2022/11/20 05:18:28;;;;;;;24.60;12.45;;;;;;;11.19;100.00;98733.50;5021821;28;20026;-72
2022/11/20 05:20:58;;;;;;;27.95;12.82;;;;;;;11.19;100.00;98729.84;5009128;28;20036;-71
2022/11/20 05:23:24;;;;;;;21.48;13.32;;;;;;;11.19;100.00;98741.88;5013918;28;20036;-72
2022/11/20 05:25:57;;;;;;;28.05;13.20;;;;;;;11.23;100.00;98739.19;5009665;28;20057;-70
2022/11/20 05:28:23;;;;;;;24.77;15.55;;;;;;;11.26;100.00;98735.66;5012701;28;20562;-72
2022/11/20 05:30:49;;;;;;;29.85;14.23;;;;;;;11.40;100.00;98720.44;5029564;28;20029;-72
2022/11/20 05:33:14;;;;;;;25.10;14.07;;;;;;;11.51;100.00;98719.53;5029068;28;20028;-72
2022/11/20 05:35:40;;;;;;;24.55;13.70;;;;;;;11.47;100.00;98723.44;5031646;28;20473;-72
2022/11/20 05:38:06;;;;;;;37.72;20.63;;;;;;;11.39;100.00;98722.41;5030057;28;20029;-73
2022/11/20 05:40:31;;;;;;;41.35;19.45;;;;;;;11.37;100.00;98731.19;5031909;28;20030;-73
2022/11/20 05:42:56;;;;;;;38.42;17.02;;;;;;;11.22;100.00;98729.13;5030706;28;20485;-74
2022/11/20 05:45:22;;;;;;;49.95;18.90;;;;;;;11.30;100.00;98728.16;5030681;28;20033;-74
2022/11/20 05:47:47;;;;;;;35.17;19.45;;;;;;;11.36;100.00;98737.94;5027779;28;20045;-74
2022/11/20 05:50:14;;;;;;;40.95;22.15;;;;;;;11.36;100.00;98734.31;5029839;28;20035;-74
2022/11/20 05:52:40;;;;;;;31.85;18.35;;;;;;;11.04;100.00;98721.06;5025832;28;20021;-73
2022/11/20 05:55:06;;;;;;;43.30;19.35;;;;;;;11.04;100.00;98717.44;5028518;28;20498;-74
2022/11/20 05:57:31;;;;;;;27.15;17.10;;;;;;;11.08;100.00;98721.97;5026656;28;20033;-74
2022/11/20 05:59:56;;;;;;;28.27;15.15;;;;;;;11.25;100.00;98722.84;5032044;28;20026;-74
2022/11/20 06:02:22;;;;;;;28.60;14.23;;;;;;;11.09;100.00;98714.41;5031898;28;20018;-70
2022/11/20 06:04:48;;;;;;;29.85;13.55;;;;;;;10.95;100.00;98718.44;5032086;28;20025;-70
2022/11/20 06:07:14;;;;;;;27.25;12.27;;;;;;;10.95;100.00;98712.00;5030770;28;20424;-72
2022/11/20 06:09:39;;;;;;;29.98;11.30;;;;;;;11.22;100.00;98729.13;5030758;28;20079;-72
2022/11/20 06:12:05;;;;;;;26.40;9.88;;;;;;;11.32;100.00;98728.63;5014702;28;20120;-72
2022/11/20 06:14:30;;;;;;;24.15;11.18;;;;;;;11.39;100.00;98753.19;5028509;28;20447;-70
2022/11/20 06:16:56;;;;;;;25.38;12.27;;;;;;;11.40;100.00;98756.81;5010791;28;20037;-72
2022/11/20 06:19:21;;;;;;;28.48;16.92;;;;;;;11.46;100.00;98753.41;5031499;28;20021;-71
2022/11/20 06:21:49;;;;;;;45.00;18.35;;;;;;;11.57;100.00;98759.28;5007698;28;20029;-71
2022/11/20 06:24:14;;;;;;;50.33;22.63;;;;;;;11.50;100.00;98765.50;5018138;28;20142;-71
2022/11/20 06:26:40;;;;;;;34.75;19.55;;;;;;;11.51;100.00;98769.94;5029400;28;20025;-71
2022/11/20 06:29:05;;;;;;;37.08;18.08;;;;;;;11.53;100.00;98772.38;5025425;28;20026;-70
2022/11/20 06:31:34;;;;;;;41.10;22.98;;;;;;;11.47;100.00;98757.84;5025488;28;20059;-71
2022/11/20 06:34:00;;;;;;;97.60;53.40;;;;;;;11.52;100.00;98779.16;5008370;28;20037;-70
2022/11/20 06:36:26;;;;;;;33.00;17.52;;;;;;;11.72;100.00;98770.88;5027269;28;20030;-72
2022/11/20 06:38:52;;;;;;;36.47;17.33;;;;;;;11.91;100.00;98770.19;4999255;28;20033;-72
2022/11/20 06:41:20;;;;;;;40.17;20.85;;;;;;;11.98;100.00;98769.53;5005261;28;20034;-71
2022/11/20 06:43:46;;;;;;;45.95;22.67;;;;;;;12.00;100.00;98776.41;5023538;28;20405;-71
2022/11/20 06:46:12;;;;;;;76.32;38.00;;;;;;;12.02;100.00;98781.69;5007990;28;20099;-70
2022/11/20 06:48:38;;;;;;;72.60;42.15;;;;;;;12.01;100.00;98774.41;5024511;28;20037;-69
2022/11/20 06:51:05;;;;;;;53.53;33.60;;;;;;;11.72;100.00;98768.88;5019913;28;20029;-71
2022/11/20 06:53:31;;;;;;;43.50;22.90;;;;;;;11.72;100.00;98773.69;5023195;28;20048;-69
2022/11/20 06:55:59;;;;;;;24.55;13.48;;;;;;;11.84;100.00;98765.22;5007835;28;20437;-72
2022/11/20 06:58:29;;;;;;;18.23;10.38;;;;;;;11.97;100.00;98767.91;5021030;28;20186;-71
2022/11/20 07:00:59;;;;;;;27.00;11.48;;;;;;;12.26;100.00;98777.06;5025121;28;20029;-71
2022/11/20 07:03:24;;;;;;;26.30;8.82;;;;;;;12.49;100.00;98764.00;5026867;28;20510;-71
2022/11/20 07:05:50;;;;;;;23.25;11.77;;;;;;;12.78;100.00;98764.63;5006775;28;20056;-71
2022/11/20 07:08:15;;;;;;;13.73;7.75;;;;;;;12.95;100.00;98761.75;5027585;28;20439;-69
2022/11/20 07:10:41;;;;;;;13.32;7.20;;;;;;;13.02;100.00;98770.34;5027224;28;20116;-73
2022/11/20 07:13:06;;;;;;;18.48;7.80;;;;;;;12.91;100.00;98767.28;5028067;28;20029;-72
2022/11/20 07:15:32;;;;;;;15.55;7.78;;;;;;;13.07;100.00;98770.03;5023087;28;20018;-72
2022/11/20 07:18:01;;;;;;;21.00;7.15;;;;;;;13.10;100.00;98771.31;5029066;28;20029;-72
2022/11/20 07:20:27;;;;;;;13.13;7.10;;;;;;;13.08;100.00;98779.28;5027029;28;20029;-74
2022/11/20 07:22:55;;;;;;;16.42;8.85;;;;;;;13.14;100.00;98781.44;5028185;28;20025;-73
2022/11/20 07:25:20;;;;;;;13.50;7.95;;;;;;;13.02;100.00;98788.00;5027599;28;20036;-73
2022/11/20 07:27:46;;;;;;;17.95;8.13;;;;;;;12.90;100.00;98772.13;5009968;28;20125;-73
2022/11/20 07:30:12;;;;;;;17.83;8.18;;;;;;;12.95;100.00;98771.00;5025555;28;20022;-74
2022/11/20 07:32:37;;;;;;;19.75;9.15;;;;;;;12.95;100.00;98776.63;5029067;28;20032;-73
2022/11/20 07:35:03;;;;;;;21.33;10.23;;;;;;;12.98;100.00;98781.50;5026766;28;20420;-73
2022/11/20 07:37:28;;;;;;;18.77;8.63;;;;;;;12.99;100.00;98771.09;5010610;28;20519;-73
2022/11/20 07:39:54;;;;;;;23.20;8.60;;;;;;;13.16;100.00;98779.06;5008862;28;20025;-75
2022/11/20 07:42:19;;;;;;;18.75;8.43;;;;;;;13.19;100.00;98769.88;5027790;28;20033;-73
2022/11/20 07:44:45;;;;;;;15.93;7.95;;;;;;;13.22;100.00;98751.50;5009497;28;20037;-72
2022/11/20 07:47:10;;;;;;;18.70;7.43;;;;;;;13.24;100.00;98762.38;5027437;28;20095;-74
2022/11/20 07:49:36;;;;;;;17.45;8.05;;;;;;;13.40;100.00;98768.69;5009651;28;20018;-73
2022/11/20 07:52:01;;;;;;;17.23;7.50;;;;;;;13.44;100.00;98769.59;5017718;28;20044;-72
2022/11/20 07:54:26;;;;;;;22.25;7.28;;;;;;;13.50;100.00;98758.88;5029942;28;20036;-71
2022/11/20 07:56:53;;;;;;;15.65;8.27;;;;;;;13.73;100.00;98769.34;5027618;28;20033;-72
2022/11/20 07:59:19;;;;;;;11.48;7.00;;;;;;;13.84;100.00;98780.78;5026249;28;20072;-72
2022/11/20 08:01:44;;;;;;;17.08;6.35;;;;;;;14.24;100.00;98781.44;5011145;28;20025;-71
2022/11/20 08:04:11;;;;;;;11.15;6.20;;;;;;;14.29;97.88;98772.69;5009133;28;20056;-72
2022/11/20 08:06:36;;;;;;;16.35;6.15;;;;;;;14.45;97.95;98764.91;5028388;28;20025;-73
2022/11/20 08:09:02;;;;;;;16.95;7.25;;;;;;;14.39;97.79;98765.59;5028182;28;20039;-73
2022/11/20 08:14:12;;;;;;;14.25;7.80;;;;;;;14.45;98.77;98784.59;5026938;28;20052;-70
2022/11/20 08:16:42;;;;;;;15.27;8.55;;;;;;;14.44;100.00;98780.16;5011900;28;20025;-73
2022/11/20 08:19:08;;;;;;;13.27;7.10;;;;;;;14.38;100.00;98781.69;5031487;28;20489;-73
2022/11/20 08:21:33;;;;;;;27.60;7.90;;;;;;;14.39;100.00;98776.84;5031925;28;20053;-73
2022/11/20 08:23:59;;;;;;;24.98;7.80;;;;;;;14.41;100.00;98769.69;5031426;28;20116;-74
2022/11/20 08:26:25;;;;;;;14.32;7.43;;;;;;;14.53;100.00;98776.28;5030591;28;20041;-70
2022/11/20 08:28:55;;;;;;;13.55;6.88;;;;;;;14.69;100.00;98785.34;5000418;28;20547;-72
2022/11/20 08:31:21;;;;;;;15.27;6.88;;;;;;;14.67;100.00;98772.88;5042627;28;20662;-73
2022/11/20 08:33:46;;;;;;;15.50;8.52;;;;;;;14.81;100.00;98769.47;5032276;28;20041;-73
2022/11/20 08:36:12;;;;;;;14.77;7.68;;;;;;;14.84;100.00;98779.97;5032405;28;20076;-74
2022/11/20 08:38:38;;;;;;;13.57;7.22;;;;;;;14.84;100.00;98766.72;5032552;28;20455;-72
2022/11/20 08:43:48;;;;;;;19.05;8.40;;;;;;;15.01;99.71;98762.50;5030396;28;20079;-73
2022/11/20 08:46:14;;;;;;;15.07;7.35;;;;;;;15.19;99.02;98758.28;5014019;28;20081;-74
2022/11/20 08:48:40;;;;;;;26.55;7.90;;;;;;;15.19;96.90;98761.13;5020757;28;20036;-73
2022/11/20 08:51:05;;;;;;;20.17;8.77;;;;;;;15.43;95.44;98756.94;5012362;28;20066;-73
2022/11/20 08:53:31;;;;;;;10.65;5.55;;;;;;;15.55;93.61;98751.03;4994510;28;20160;-72
2022/11/20 08:55:57;;;;;;;16.25;7.13;;;;;;;15.62;92.09;98755.16;5011662;28;20038;-73
2022/11/20 08:58:22;;;;;;;19.25;10.15;;;;;;;15.65;91.60;98762.81;5023407;28;20028;-69
2022/11/20 09:00:48;;;;;;;42.83;27.52;;;;;;;15.80;91.35;98761.75;5001844;28;20034;-70
2022/11/20 09:03:13;;;;;;;29.75;17.05;;;;;;;15.87;91.25;98749.78;5014193;28;20099;-67
2022/11/20 09:05:39;;;;;;;18.77;10.73;;;;;;;15.90;90.41;98745.38;5014971;28;20426;-72
2022/11/20 09:08:05;;;;;;;20.67;10.15;;;;;;;15.89;92.41;98746.53;5017601;28;20405;-71
2022/11/20 09:10:30;;;;;;;13.70;6.90;;;;;;;15.96;92.18;98735.38;5011301;28;20480;-75
2022/11/20 09:12:56;;;;;;;14.93;7.38;;;;;;;15.88;92.29;98744.91;5006080;28;20048;-70
2022/11/20 09:15:23;;;;;;;13.10;6.68;;;;;;;15.82;91.23;98738.81;5010671;28;20036;-71
2022/11/20 09:17:57;;;;;;;23.77;9.05;;;;;;;15.94;92.02;98737.78;5006377;28;20045;-71
2022/11/20 09:20:24;;;;;;;13.32;7.10;;;;;;;16.10;91.97;98731.84;5013808;28;20025;-71
2022/11/20 09:22:49;;;;;;;14.00;6.68;;;;;;;16.22;91.33;98730.72;5010008;28;20034;-73
2022/11/20 09:25:15;;;;;;;14.55;7.63;;;;;;;16.31;91.05;98731.22;5009806;28;20033;-70
2022/11/20 09:27:43;;;;;;;15.07;8.00;;;;;;;16.49;88.87;98725.69;5020337;28;20026;-69
2022/11/20 09:30:09;;;;;;;22.80;8.52;;;;;;;16.51;88.91;98719.63;5009677;28;20117;-68
2022/11/20 09:32:35;;;;;;;23.45;8.70;;;;;;;16.57;86.81;98726.53;5013418;28;20571;-71
2022/11/20 09:35:01;;;;;;;15.00;8.77;;;;;;;16.70;89.04;98715.69;4995274;28;20026;-70
2022/11/20 09:37:26;;;;;;;16.60;8.52;;;;;;;16.51;86.71;98716.81;5020430;28;20033;-73
2022/11/20 09:39:52;;;;;;;17.95;9.40;;;;;;;16.40;88.14;98709.06;5030050;28;20033;-74
2022/11/20 09:42:26;;;;;;;28.95;18.30;;;;;;;16.42;88.28;98705.88;5021839;28;20094;-70
2022/11/20 09:45:18;;;;;;;28.85;20.63;;;;;;;16.32;91.18;98710.25;5009879;28;20429;-71
2022/11/20 09:47:50;;;;;;;22.05;11.48;;;;;;;16.30;92.30;98704.19;5008406;28;20536;-70
2022/11/20 09:50:27;;;;;;;17.20;8.55;;;;;;;16.37;93.77;98712.69;5012960;28;20081;-70
2022/11/20 09:53:16;;;;;;;13.13;7.10;;;;;;;16.69;92.23;98695.16;5002578;28;20030;-69
2022/11/20 09:55:42;;;;;;;17.23;6.35;;;;;;;17.14;87.36;98701.81;4975900;28;20462;-72
2022/11/20 09:58:29;;;;;;;15.73;6.97;;;;;;;17.33;83.85;98709.94;5012608;28;20035;-71
2022/11/20 10:00:58;;;;;;;18.67;7.35;;;;;;;17.35;82.46;98695.41;5028689;28;20025;-70
2022/11/20 10:03:57;;;;;;;15.55;7.10;;;;;;;17.32;82.93;98699.84;5002344;28;20673;-72
2022/11/20 10:06:39;;;;;;;13.25;6.45;;;;;;;17.56;78.85;98691.84;5003660;28;20472;-72
2022/11/20 10:09:30;;;;;;;18.50;5.72;;;;;;;17.73;73.58;98706.38;5008796;28;20030;-72
2022/11/20 10:12:14;;;;;;;18.80;6.38;;;;;;;17.65;77.54;98694.25;5010251;28;20105;-71
2022/11/20 10:14:52;;;;;;;15.32;6.63;;;;;;;17.51;76.98;98687.38;5009339;28;20080;-72
2022/11/20 10:17:23;;;;;;;10.00;4.93;;;;;;;17.37;77.75;98678.84;5009680;28;20113;-71
2022/11/20 10:20:11;;;;;;;10.68;5.47;;;;;;;17.49;76.83;98674.84;4993539;28;20032;-72
2022/11/20 10:23:10;;;;;;;15.82;6.20;;;;;;;17.71;73.65;98678.50;5011090;28;20036;-73
2022/11/20 10:25:43;;;;;;;15.48;5.97;;;;;;;17.83;73.90;98672.44;4998304;28;20033;-67
2022/11/20 10:28:34;;;;;;;12.20;5.35;;;;;;;18.06;69.73;98665.59;5005628;28;20030;-68
2022/11/20 10:31:04;;;;;;;17.90;5.13;;;;;;;18.14;69.00;98665.59;5009281;28;20084;-68
2022/11/20 10:33:34;;;;;;;19.02;5.55;;;;;;;18.27;70.07;98658.28;4990784;28;20096;-71
2022/11/20 10:36:40;;;;;;;14.48;3.80;;;;;;;18.49;65.28;98663.91;5009213;28;20045;-70
2022/11/20 10:39:24;;;;;;;15.30;6.03;;;;;;;18.57;65.48;98668.31;4968332;28;20053;-68
2022/11/20 10:41:53;;;;;;;16.25;5.50;;;;;;;18.65;66.49;98669.91;4981315;28;20029;-70
2022/11/20 10:47:16;;;;;;;20.75;4.70;;;;;;;19.19;54.05;98663.25;5009944;28;20064;-69
2022/11/20 10:49:45;;;;;;;12.80;5.15;;;;;;;19.48;55.04;98668.72;5009115;28;20013;-69
2022/11/20 10:52:17;;;;;;;33.58;11.45;;;;;;;19.73;53.01;98673.41;5028121;28;20574;-70
2022/11/20 10:55:22;;;;;;;27.27;7.38;;;;;;;19.82;51.68;98655.13;5027269;28;20038;-68
2022/11/20 10:58:21;;;;;;;22.63;5.68;;;;;;;20.06;51.72;98656.13;4989971;28;20068;-68
2022/11/20 11:00:46;;;;;;;16.02;5.50;;;;;;;20.08;49.36;98644.38;5019233;28;20038;-68
2022/11/20 11:03:21;;;;;;;21.40;3.75;;;;;;;20.16;50.23;98655.22;5007706;28;20037;-68
2022/11/20 11:06:06;;;;;;;21.00;3.80;;;;;;;20.25;49.53;98646.22;5023997;28;20461;-69
2022/11/20 11:08:38;;;;;;;19.20;3.92;;;;;;;20.25;49.63;98648.25;5002877;28;20133;-68
2022/11/20 11:11:38;;;;;;;45.05;5.20;;;;;;;20.44;48.90;98644.00;5021128;28;20037;-72
2022/11/20 11:14:08;;;;;;;18.97;2.97;;;;;;;20.53;47.71;98643.50;4985698;28;20161;-73
2022/11/20 11:16:33;;;;;;;24.15;3.53;;;;;;;20.62;47.48;98638.13;5038015;28;20159;-70
2022/11/20 11:19:11;;;;;;;13.98;3.35;;;;;;;20.70;46.94;98627.47;5027055;28;20556;-71
2022/11/20 11:21:43;;;;;;;14.70;3.58;;;;;;;20.81;47.93;98628.16;5007208;28;20424;-70
2022/11/20 11:24:19;;;;;;;21.27;4.35;;;;;;;20.73;46.67;98630.28;5027456;28;20033;-71
2022/11/20 11:26:56;;;;;;;20.92;3.33;;;;;;;20.77;46.75;98621.72;5024048;28;20025;-68
2022/11/20 11:29:21;;;;;;;29.25;4.50;;;;;;;20.80;48.26;98623.69;5029459;28;20112;-70
2022/11/20 11:31:47;;;;;;;22.02;5.00;;;;;;;20.76;45.79;98612.38;5007240;28;20085;-70
2022/11/20 11:34:15;;;;;;;20.40;4.55;;;;;;;20.80;47.03;98614.34;5007010;28;20026;-70
2022/11/20 11:36:41;;;;;;;19.73;4.93;;;;;;;20.76;47.00;98611.56;5031685;28;20029;-70